sensor_id;sensor_type;location;lat;lon;timestamp;temperature;humidity
20985;DHT22;10651;47.552;7.606;2022-11-20T06:22:38;8.60;99.90
20985;DHT22;10651;47.552;7.606;2022-11-20T06:25:04;8.70;99.90
20985;DHT22;10651;47.552;7.606;2022-11-20T06:27:29;8.70;99.90
20985;DHT22;10651;47.552;7.606;2022-11-20T06:29:55;8.70;99.90
20985;DHT22;10651;47.552;7.606;2022-11-20T06:32:20;8.70;99.90
20985;DHT22;10651;47.552;7.606;2022-11-20T06:34:46;8.80;99.90
20985;DHT22;10651;47.552;7.606;2022-11-20T06:37:12;8.80;99.90
20985;DHT22;10651;47.552;7.606;2022-11-20T06:39:37;8.80;99.90
20985;DHT22;10651;47.552;7.606;2022-11-20T06:42:03;8.80;99.90
20985;DHT22;10651;47.552;7.606;2022-11-20T06:44:29;8.70;99.90
20985;DHT22;10651;47.552;7.606;2022-11-20T06:46:54;8.80;99.90
20985;DHT22;10651;47.552;7.606;2022-11-20T06:49:20;8.70;99.90
20985;DHT22;10651;47.552;7.606;2022-11-20T06:51:45;8.70;99.90
20985;DHT22;10651;47.552;7.606;2022-11-20T06:54:11;8.70;99.90
20985;DHT22;10651;47.552;7.606;2022-11-20T06:56:37;8.70;99.90
20985;DHT22;10651;47.552;7.606;2022-11-20T06:59:06;8.70;99.90
20985;DHT22;10651;47.552;7.606;2022-11-20T07:01:32;8.80;99.90
20985;DHT22;10651;47.552;7.606;2022-11-20T07:03:58;8.70;99.90
20985;DHT22;10651;47.552;7.606;2022-11-20T07:06:23;8.80;99.90
20985;DHT22;10651;47.552;7.606;2022-11-20T07:08:52;8.70;99.90
20985;DHT22;10651;47.552;7.606;2022-11-20T07:11:18;8.80;99.90
20985;DHT22;10651;47.552;7.606;2022-11-20T07:13:43;8.80;99.90
20985;DHT22;10651;47.552;7.606;2022-11-20T07:16:09;8.80;99.90
20985;DHT22;10651;47.552;7.606;2022-11-20T07:18:35;8.80;99.90
20985;DHT22;10651;47.552;7.606;2022-11-20T07:21:03;8.80;99.90
20985;DHT22;10651;47.552;7.606;2022-11-20T07:23:29;8.70;99.90
20985;DHT22;10651;47.552;7.606;2022-11-20T07:25:54;8.80;99.90
20985;DHT22;10651;47.552;7.606;2022-11-20T07:28:20;8.80;99.90
20985;DHT22;10651;47.552;7.606;2022-11-20T07:30:52;8.80;99.90
20985;DHT22;10651;47.552;7.606;2022-11-20T07:33:19;8.80;99.90
20985;DHT22;10651;47.552;7.606;2022-11-20T07:35:44;8.80;99.90
20985;DHT22;10651;47.552;7.606;2022-11-20T07:38:10;8.90;99.90
20985;DHT22;10651;47.552;7.606;2022-11-20T07:40:36;8.90;99.90
20985;DHT22;10651;47.552;7.606;2022-11-20T07:43:01;8.90;99.90
20985;DHT22;10651;47.552;7.606;2022-11-20T07:45:27;8.90;99.90
20985;DHT22;10651;47.552;7.606;2022-11-20T07:47:53;8.90;99.90
20985;DHT22;10651;47.552;7.606;2022-11-20T07:50:19;9.00;99.90
20985;DHT22;10651;47.552;7.606;2022-11-20T07:52:45;9.00;99.90
20985;DHT22;10651;47.552;7.606;2022-11-20T07:55:11;9.00;99.90
20985;DHT22;10651;47.552;7.606;2022-11-20T07:57:37;9.00;99.90
20985;DHT22;10651;47.552;7.606;2022-11-20T08:00:04;9.00;99.90
20985;DHT22;10651;47.552;7.606;2022-11-20T08:02:30;9.10;99.90
20985;DHT22;10651;47.552;7.606;2022-11-20T08:04:56;9.10;99.90
20985;DHT22;10651;47.552;7.606;2022-11-20T08:07:21;9.10;99.90
20985;DHT22;10651;47.552;7.606;2022-11-20T08:09:47;9.20;99.90
20985;DHT22;10651;47.552;7.606;2022-11-20T08:12:20;9.20;99.90
20985;DHT22;10651;47.552;7.606;2022-11-20T08:15:05;9.20;99.90
20985;DHT22;10651;47.552;7.606;2022-11-20T08:17:31;9.30;99.90
20985;DHT22;10651;47.552;7.606;2022-11-20T08:19:57;9.30;99.90
20985;DHT22;10651;47.552;7.606;2022-11-20T08:22:23;9.40;99.90
20985;DHT22;10651;47.552;7.606;2022-11-20T08:24:48;9.30;99.90
20985;DHT22;10651;47.552;7.606;2022-11-20T08:27:14;9.30;99.90
20985;DHT22;10651;47.552;7.606;2022-11-20T08:29:40;9.30;99.90
20985;DHT22;10651;47.552;7.606;2022-11-20T08:32:06;9.30;99.90
20985;DHT22;10651;47.552;7.606;2022-11-20T08:34:31;9.40;99.90
20985;DHT22;10651;47.552;7.606;2022-11-20T08:36:57;9.40;99.90
20985;DHT22;10651;47.552;7.606;2022-11-20T08:39:23;9.40;99.90
20985;DHT22;10651;47.552;7.606;2022-11-20T08:41:48;9.50;99.90
20985;DHT22;10651;47.552;7.606;2022-11-20T08:44:14;9.40;99.90
20985;DHT22;10651;47.552;7.606;2022-11-20T08:46:41;9.40;99.90
20985;DHT22;10651;47.552;7.606;2022-11-20T08:49:11;9.50;99.90
20985;DHT22;10651;47.552;7.606;2022-11-20T08:51:38;9.60;99.90
20985;DHT22;10651;47.552;7.606;2022-11-20T08:54:04;9.60;99.90
20985;DHT22;10651;47.552;7.606;2022-11-20T08:56:31;9.60;99.90
20985;DHT22;10651;47.552;7.606;2022-11-20T08:58:57;9.50;99.90
20985;DHT22;10651;47.552;7.606;2022-11-20T09:01:24;9.50;99.90
20985;DHT22;10651;47.552;7.606;2022-11-20T09:03:50;9.60;99.90
20985;DHT22;10651;47.552;7.606;2022-11-20T09:06:16;9.60;99.90
20985;DHT22;10651;47.552;7.606;2022-11-20T09:08:42;9.80;99.90
20985;DHT22;10651;47.552;7.606;2022-11-20T09:11:08;9.90;99.90
20985;DHT22;10651;47.552;7.606;2022-11-20T09:13:35;9.90;99.90
20985;DHT22;10651;47.552;7.606;2022-11-20T09:16:06;10.00;99.90
20985;DHT22;10651;47.552;7.606;2022-11-20T09:18:33;10.00;99.90
20985;DHT22;10651;47.552;7.606;2022-11-20T09:21:00;10.00;99.90
20985;DHT22;10651;47.552;7.606;2022-11-20T09:23:27;10.10;99.90
20985;DHT22;10651;47.552;7.606;2022-11-20T09:25:53;10.20;99.90
20985;DHT22;10651;47.552;7.606;2022-11-20T09:28:21;10.30;99.90
20985;DHT22;10651;47.552;7.606;2022-11-20T09:30:47;10.30;99.90
20985;DHT22;10651;47.552;7.606;2022-11-20T09:33:12;10.30;99.90
20985;DHT22;10651;47.552;7.606;2022-11-20T09:35:38;10.30;99.90
20985;DHT22;10651;47.552;7.606;2022-11-20T09:38:05;10.30;99.90
20985;DHT22;10651;47.552;7.606;2022-11-20T09:40:31;10.20;99.90
20985;DHT22;10651;47.552;7.606;2022-11-20T09:43:18;10.20;99.90
20985;DHT22;10651;47.552;7.606;2022-11-20T09:56:02;10.50;99.90
20985;DHT22;10651;47.552;7.606;2022-11-20T09:58:33;10.50;99.90
20985;DHT22;10651;47.552;7.606;2022-11-20T10:01:12;10.50;99.90
20985;DHT22;10651;47.552;7.606;2022-11-20T10:04:10;10.50;99.90
20985;DHT22;10651;47.552;7.606;2022-11-20T10:09:44;10.40;99.90
20985;DHT22;10651;47.552;7.606;2022-11-20T10:28:40;10.20;99.90
20985;DHT22;10651;47.552;7.606;2022-11-20T10:31:14;10.20;99.90
20985;DHT22;10651;47.552;7.606;2022-11-20T10:33:45;10.20;99.90
20985;DHT22;10651;47.552;7.606;2022-11-20T10:36:21;10.40;99.90
20985;DHT22;10651;47.552;7.606;2022-11-20T10:41:41;10.50;99.90
20985;DHT22;10651;47.552;7.606;2022-11-20T10:44:27;10.50;99.90
20985;DHT22;10651;47.552;7.606;2022-11-20T10:47:17;10.50;99.90
20985;DHT22;10651;47.552;7.606;2022-11-20T10:49:50;10.60;99.90
20985;DHT22;10651;47.552;7.606;2022-11-20T10:55:33;11.00;99.90
20985;DHT22;10651;47.552;7.606;2022-11-20T11:00:36;11.60;99.90
20985;DHT22;10651;47.552;7.606;2022-11-20T11:03:02;11.80;99.90
20985;DHT22;10651;47.552;7.606;2022-11-20T11:07:58;11.90;99.90
20985;DHT22;10651;47.552;7.606;2022-11-20T11:13:22;12.80;99.90
20985;DHT22;10651;47.552;7.606;2022-11-20T11:15:48;12.80;99.90
20985;DHT22;10651;47.552;7.606;2022-11-20T11:18:24;12.30;99.90
20985;DHT22;10651;47.552;7.606;2022-11-20T11:20:50;11.80;99.90
20985;DHT22;10651;47.552;7.606;2022-11-20T11:23:43;11.40;99.90
20985;DHT22;10651;47.552;7.606;2022-11-20T11:26:22;11.40;99.90
20985;DHT22;10651;47.552;7.606;2022-11-20T11:31:28;11.60;99.90
20985;DHT22;10651;47.552;7.606;2022-11-20T11:34:07;14.90;99.90
20985;DHT22;10651;47.552;7.606;2022-11-20T11:36:35;21.60;99.90
20985;DHT22;10651;47.552;7.606;2022-11-20T11:39:02;20.40;99.90
20985;DHT22;10651;47.552;7.606;2022-11-20T11:41:31;21.90;99.90
20985;DHT22;10651;47.552;7.606;2022-11-20T11:44:30;18.20;99.90
20985;DHT22;10651;47.552;7.606;2022-11-20T11:47:42;19.40;99.90
20985;DHT22;10651;47.552;7.606;2022-11-20T12:01:55;29.10;88.50
20985;DHT22;10651;47.552;7.606;2022-11-20T12:06:33;31.10;80.20
20985;DHT22;10651;47.552;7.606;2022-11-20T12:09:04;31.40;72.10
20985;DHT22;10651;47.552;7.606;2022-11-20T12:14:35;31.70;68.10
20985;DHT22;10651;47.552;7.606;2022-11-20T12:17:02;32.10;66.40
20985;DHT22;10651;47.552;7.606;2022-11-20T12:19:33;32.30;65.40
20985;DHT22;10651;47.552;7.606;2022-11-20T12:22:19;29.50;66.30
20985;DHT22;10651;47.552;7.606;2022-11-20T12:28:26;31.40;64.10
20985;DHT22;10651;47.552;7.606;2022-11-20T12:31:08;29.80;62.70
20985;DHT22;10651;47.552;7.606;2022-11-20T12:33:41;28.90;61.70
20985;DHT22;10651;47.552;7.606;2022-11-20T12:36:56;28.50;63.00
20985;DHT22;10651;47.552;7.606;2022-11-20T12:39:17;28.10;60.20
20985;DHT22;10651;47.552;7.606;2022-11-20T12:42:32;24.00;65.70
20985;DHT22;10651;47.552;7.606;2022-11-20T12:48:24;19.10;79.50
20985;DHT22;10651;47.552;7.606;2022-11-20T12:51:13;18.90;86.80
20985;DHT22;10651;47.552;7.606;2022-11-20T13:04:33;14.40;96.80
20985;DHT22;10651;47.552;7.606;2022-11-20T13:07:13;14.30;98.40
20985;DHT22;10651;47.552;7.606;2022-11-20T13:09:49;14.20;99.40
20985;DHT22;10651;47.552;7.606;2022-11-20T13:12:43;13.90;99.90
20985;DHT22;10651;47.552;7.606;2022-11-20T13:18:02;13.60;99.90
20985;DHT22;10651;47.552;7.606;2022-11-20T13:20:30;13.60;99.90
20985;DHT22;10651;47.552;7.606;2022-11-20T13:22:57;13.60;99.90
20985;DHT22;10651;47.552;7.606;2022-11-20T13:25:34;13.40;99.90
20985;DHT22;10651;47.552;7.606;2022-11-20T13:28:03;13.30;99.90
20985;DHT22;10651;47.552;7.606;2022-11-20T13:30:30;13.40;99.90
20985;DHT22;10651;47.552;7.606;2022-11-20T13:33:21;13.50;99.90
20985;DHT22;10651;47.552;7.606;2022-11-20T13:36:03;13.30;99.90
20985;DHT22;10651;47.552;7.606;2022-11-20T13:38:46;13.10;99.90
20985;DHT22;10651;47.552;7.606;2022-11-20T13:41:27;13.40;99.90
20985;DHT22;10651;47.552;7.606;2022-11-20T13:43:58;13.70;99.90
20985;DHT22;10651;47.552;7.606;2022-11-20T13:46:38;13.60;99.90
20985;DHT22;10651;47.552;7.606;2022-11-20T13:49:10;13.40;99.90
20985;DHT22;10651;47.552;7.606;2022-11-20T13:51:50;13.30;99.90
20985;DHT22;10651;47.552;7.606;2022-11-20T13:55:02;13.50;99.90
20985;DHT22;10651;47.552;7.606;2022-11-20T13:58:02;13.70;99.90
20985;DHT22;10651;47.552;7.606;2022-11-20T14:00:20;13.80;99.90
20985;DHT22;10651;47.552;7.606;2022-11-20T14:03:01;13.80;99.90
20985;DHT22;10651;47.552;7.606;2022-11-20T14:05:28;13.80;99.90
20985;DHT22;10651;47.552;7.606;2022-11-20T14:07:57;13.70;99.90
20985;DHT22;10651;47.552;7.606;2022-11-20T14:10:26;13.50;99.90
20985;DHT22;10651;47.552;7.606;2022-11-20T14:12:52;13.30;99.90
20985;DHT22;10651;47.552;7.606;2022-11-20T14:15:34;13.30;99.90
20985;DHT22;10651;47.552;7.606;2022-11-20T14:18:12;13.30;99.90
20985;DHT22;10651;47.552;7.606;2022-11-20T14:20:38;13.20;99.90
20985;DHT22;10651;47.552;7.606;2022-11-20T14:23:04;12.90;99.90
20985;DHT22;10651;47.552;7.606;2022-11-20T14:25:30;12.90;99.90
20985;DHT22;10651;47.552;7.606;2022-11-20T14:28:00;12.90;99.90
20985;DHT22;10651;47.552;7.606;2022-11-20T14:30:29;12.80;99.90
20985;DHT22;10651;47.552;7.606;2022-11-20T14:33:02;12.90;99.90
20985;DHT22;10651;47.552;7.606;2022-11-20T14:35:39;12.90;99.90
20985;DHT22;10651;47.552;7.606;2022-11-20T14:38:10;12.70;99.90
20985;DHT22;10651;47.552;7.606;2022-11-20T14:40:37;12.80;99.90
20985;DHT22;10651;47.552;7.606;2022-11-20T14:43:26;12.90;99.90
20985;DHT22;10651;47.552;7.606;2022-11-20T14:46:01;12.90;99.90
20985;DHT22;10651;47.552;7.606;2022-11-20T14:48:35;12.90;99.90
20985;DHT22;10651;47.552;7.606;2022-11-20T14:51:02;12.90;99.90
20985;DHT22;10651;47.552;7.606;2022-11-20T14:53:28;12.60;99.90
20985;DHT22;10651;47.552;7.606;2022-11-20T14:56:01;12.50;99.90
20985;DHT22;10651;47.552;7.606;2022-11-20T14:58:30;12.40;99.90
20985;DHT22;10651;47.552;7.606;2022-11-20T15:01:07;12.20;99.90
20985;DHT22;10651;47.552;7.606;2022-11-20T15:03:36;12.20;99.90
20985;DHT22;10651;47.552;7.606;2022-11-20T15:06:03;12.20;99.90
20985;DHT22;10651;47.552;7.606;2022-11-20T15:08:29;12.10;99.90
20985;DHT22;10651;47.552;7.606;2022-11-20T15:10:55;12.10;99.90
20985;DHT22;10651;47.552;7.606;2022-11-20T15:13:36;11.90;99.90
20985;DHT22;10651;47.552;7.606;2022-11-20T15:16:04;11.80;99.90
20985;DHT22;10651;47.552;7.606;2022-11-20T15:18:39;11.80;99.90
20985;DHT22;10651;47.552;7.606;2022-11-20T15:21:18;11.80;99.90
20985;DHT22;10651;47.552;7.606;2022-11-20T15:23:44;11.70;99.90
20985;DHT22;10651;47.552;7.606;2022-11-20T15:26:11;11.70;99.90
20985;DHT22;10651;47.552;7.606;2022-11-20T15:28:45;11.70;99.90
20985;DHT22;10651;47.552;7.606;2022-11-20T15:31:14;11.60;99.90
20985;DHT22;10651;47.552;7.606;2022-11-20T15:33:40;11.60;99.90
20985;DHT22;10651;47.552;7.606;2022-11-20T15:36:06;11.50;99.90
20985;DHT22;10651;47.552;7.606;2022-11-20T15:38:32;11.40;99.90
20985;DHT22;10651;47.552;7.606;2022-11-20T15:40:57;11.40;99.90
20985;DHT22;10651;47.552;7.606;2022-11-20T15:43:23;11.40;99.90
20985;DHT22;10651;47.552;7.606;2022-11-20T15:46:11;11.40;99.90
20985;DHT22;10651;47.552;7.606;2022-11-20T15:48:41;11.30;99.90
20985;DHT22;10651;47.552;7.606;2022-11-20T15:53:37;11.10;99.90
20985;DHT22;10651;47.552;7.606;2022-11-20T15:56:03;11.10;99.90
20985;DHT22;10651;47.552;7.606;2022-11-20T15:58:29;11.00;99.90
20985;DHT22;10651;47.552;7.606;2022-11-20T16:00:56;10.80;99.90
20985;DHT22;10651;47.552;7.606;2022-11-20T16:03:22;10.90;99.90
20985;DHT22;10651;47.552;7.606;2022-11-20T16:05:48;10.90;99.90
20985;DHT22;10651;47.552;7.606;2022-11-20T16:08:14;10.90;99.90
20985;DHT22;10651;47.552;7.606;2022-11-20T16:10:40;10.90;99.90
20985;DHT22;10651;47.552;7.606;2022-11-20T16:13:12;10.80;99.90
20985;DHT22;10651;47.552;7.606;2022-11-20T16:15:59;10.90;99.90
20985;DHT22;10651;47.552;7.606;2022-11-20T16:18:26;11.00;99.90
20985;DHT22;10651;47.552;7.606;2022-11-20T16:20:53;11.00;99.90
20985;DHT22;10651;47.552;7.606;2022-11-20T16:23:20;11.00;99.90
20985;DHT22;10651;47.552;7.606;2022-11-20T16:25:46;10.90;99.90
20985;DHT22;10651;47.552;7.606;2022-11-20T16:28:13;10.90;99.90
20985;DHT22;10651;47.552;7.606;2022-11-20T16:30:39;10.80;99.90
20985;DHT22;10651;47.552;7.606;2022-11-20T16:33:09;10.80;99.90
20985;DHT22;10651;47.552;7.606;2022-11-20T16:35:35;10.80;99.90
20985;DHT22;10651;47.552;7.606;2022-11-20T16:38:01;10.80;99.90
20985;DHT22;10651;47.552;7.606;2022-11-20T16:40:27;10.70;99.90
20985;DHT22;10651;47.552;7.606;2022-11-20T16:42:52;10.70;99.90
20985;DHT22;10651;47.552;7.606;2022-11-20T16:45:18;10.60;99.90
20985;DHT22;10651;47.552;7.606;2022-11-20T16:47:44;10.60;99.90
20985;DHT22;10651;47.552;7.606;2022-11-20T16:50:10;10.50;99.90
20985;DHT22;10651;47.552;7.606;2022-11-20T16:52:35;10.60;99.90
20985;DHT22;10651;47.552;7.606;2022-11-20T16:55:01;10.60;99.90
20985;DHT22;10651;47.552;7.606;2022-11-20T16:57:27;10.60;99.90
20985;DHT22;10651;47.552;7.606;2022-11-20T16:59:54;10.60;99.90
20985;DHT22;10651;47.552;7.606;2022-11-20T17:02:20;10.70;99.90
20985;DHT22;10651;47.552;7.606;2022-11-20T17:04:45;10.60;99.90
20985;DHT22;10651;47.552;7.606;2022-11-20T17:07:11;10.60;99.90
20985;DHT22;10651;47.552;7.606;2022-11-20T17:09:37;10.60;99.90
20985;DHT22;10651;47.552;7.606;2022-11-20T17:12:04;10.60;99.90
20985;DHT22;10651;47.552;7.606;2022-11-20T17:14:30;10.60;99.90
20985;DHT22;10651;47.552;7.606;2022-11-20T17:16:56;10.60;99.90
20985;DHT22;10651;47.552;7.606;2022-11-20T17:19:21;10.50;99.90
20985;DHT22;10651;47.552;7.606;2022-11-20T17:21:47;10.50;99.90
20985;DHT22;10651;47.552;7.606;2022-11-20T17:24:13;10.60;99.90
20985;DHT22;10651;47.552;7.606;2022-11-20T17:26:41;10.60;99.90
20985;DHT22;10651;47.552;7.606;2022-11-20T17:29:12;10.50;99.90
20985;DHT22;10651;47.552;7.606;2022-11-20T17:31:39;10.40;99.90
20985;DHT22;10651;47.552;7.606;2022-11-20T17:34:06;10.30;99.90
20985;DHT22;10651;47.552;7.606;2022-11-20T17:36:32;10.30;99.90
20985;DHT22;10651;47.552;7.606;2022-11-20T17:38:58;10.30;99.90
20985;DHT22;10651;47.552;7.606;2022-11-20T17:41:26;10.40;99.90
20985;DHT22;10651;47.552;7.606;2022-11-20T17:43:57;10.40;99.90
20985;DHT22;10651;47.552;7.606;2022-11-20T17:46:33;10.40;99.90
20985;DHT22;10651;47.552;7.606;2022-11-20T17:49:00;10.40;99.90
20985;DHT22;10651;47.552;7.606;2022-11-20T17:51:28;10.40;99.90
20985;DHT22;10651;47.552;7.606;2022-11-20T17:54:02;10.40;99.90
20985;DHT22;10651;47.552;7.606;2022-11-20T17:56:32;10.30;99.90
20985;DHT22;10651;47.552;7.606;2022-11-20T17:59:16;10.30;99.90
20985;DHT22;10651;47.552;7.606;2022-11-20T18:01:43;10.30;99.90
20985;DHT22;10651;47.552;7.606;2022-11-20T18:04:09;10.20;99.90
20985;DHT22;10651;47.552;7.606;2022-11-20T18:06:35;10.10;99.90
20985;DHT22;10651;47.552;7.606;2022-11-20T18:09:02;9.90;99.90
20985;DHT22;10651;47.552;7.606;2022-11-20T18:11:31;10.00;99.90
20985;DHT22;10651;47.552;7.606;2022-11-20T18:13:59;10.00;99.90
20985;DHT22;10651;47.552;7.606;2022-11-20T18:16:49;10.00;99.90
20985;DHT22;10651;47.552;7.606;2022-11-20T18:19:18;10.00;99.90
20985;DHT22;10651;47.552;7.606;2022-11-20T18:21:44;10.00;99.90
20985;DHT22;10651;47.552;7.606;2022-11-20T18:24:10;10.00;99.90
20985;DHT22;10651;47.552;7.606;2022-11-20T18:26:36;10.10;99.90
20985;DHT22;10651;47.552;7.606;2022-11-20T18:29:03;10.20;99.90
20985;DHT22;10651;47.552;7.606;2022-11-20T18:31:28;10.20;99.90
20985;DHT22;10651;47.552;7.606;2022-11-20T18:33:54;10.10;99.90
20985;DHT22;10651;47.552;7.606;2022-11-20T18:36:22;10.00;99.90
20985;DHT22;10651;47.552;7.606;2022-11-20T18:38:49;10.00;99.90
20985;DHT22;10651;47.552;7.606;2022-11-20T18:41:20;10.00;99.90
20985;DHT22;10651;47.552;7.606;2022-11-20T18:44:06;9.90;99.90
20985;DHT22;10651;47.552;7.606;2022-11-20T18:46:54;9.90;99.90
20985;DHT22;10651;47.552;7.606;2022-11-20T18:49:20;10.00;99.90
20985;DHT22;10651;47.552;7.606;2022-11-20T18:51:45;10.00;99.90
20985;DHT22;10651;47.552;7.606;2022-11-20T18:54:12;9.90;99.90
20985;DHT22;10651;47.552;7.606;2022-11-20T18:56:38;9.90;99.90
20985;DHT22;10651;47.552;7.606;2022-11-20T18:59:05;9.90;99.90
20985;DHT22;10651;47.552;7.606;2022-11-20T19:01:31;9.80;99.90
20985;DHT22;10651;47.552;7.606;2022-11-20T19:03:57;9.90;99.90
20985;DHT22;10651;47.552;7.606;2022-11-20T19:06:24;10.00;99.90
20985;DHT22;10651;47.552;7.606;2022-11-20T19:08:51;9.90;99.90
20985;DHT22;10651;47.552;7.606;2022-11-20T19:11:17;9.90;99.90
20985;DHT22;10651;47.552;7.606;2022-11-20T19:13:44;9.90;99.90
20985;DHT22;10651;47.552;7.606;2022-11-20T19:16:18;9.60;99.90
20985;DHT22;10651;47.552;7.606;2022-11-20T19:18:45;9.60;99.90
20985;DHT22;10651;47.552;7.606;2022-11-20T19:21:15;9.50;99.90
20985;DHT22;10651;47.552;7.606;2022-11-20T19:23:42;9.40;99.90
20985;DHT22;10651;47.552;7.606;2022-11-20T19:26:08;9.60;99.90
20985;DHT22;10651;47.552;7.606;2022-11-20T19:28:36;9.60;99.90
20985;DHT22;10651;47.552;7.606;2022-11-20T19:31:10;9.60;99.90
20985;DHT22;10651;47.552;7.606;2022-11-20T19:33:36;9.50;99.90
20985;DHT22;10651;47.552;7.606;2022-11-20T19:36:20;9.50;99.90
20985;DHT22;10651;47.552;7.606;2022-11-20T19:38:48;9.30;99.90
20985;DHT22;10651;47.552;7.606;2022-11-20T19:41:16;9.20;99.90
20985;DHT22;10651;47.552;7.606;2022-11-20T19:43:42;9.20;99.90
20985;DHT22;10651;47.552;7.606;2022-11-20T19:46:08;9.20;99.90
20985;DHT22;10651;47.552;7.606;2022-11-20T19:48:35;9.20;99.90
20985;DHT22;10651;47.552;7.606;2022-11-20T19:51:15;9.20;99.90
20985;DHT22;10651;47.552;7.606;2022-11-20T19:53:42;9.10;99.90
20985;DHT22;10651;47.552;7.606;2022-11-20T19:56:08;9.20;99.90
20985;DHT22;10651;47.552;7.606;2022-11-20T19:58:34;9.20;99.90
20985;DHT22;10651;47.552;7.606;2022-11-20T20:01:11;9.20;99.90
20985;DHT22;10651;47.552;7.606;2022-11-20T20:03:38;9.10;99.90
20985;DHT22;10651;47.552;7.606;2022-11-20T20:06:07;9.10;99.90
20985;DHT22;10651;47.552;7.606;2022-11-20T20:08:33;9.00;99.90
20985;DHT22;10651;47.552;7.606;2022-11-20T20:10:58;9.00;99.90
20985;DHT22;10651;47.552;7.606;2022-11-20T20:13:25;9.00;99.90
20985;DHT22;10651;47.552;7.606;2022-11-20T20:15:51;9.00;99.90
20985;DHT22;10651;47.552;7.606;2022-11-20T20:18:17;9.00;99.90
20985;DHT22;10651;47.552;7.606;2022-11-20T20:20:43;9.00;99.90
20985;DHT22;10651;47.552;7.606;2022-11-20T20:23:09;9.00;99.90
20985;DHT22;10651;47.552;7.606;2022-11-20T20:25:37;9.00;99.90
20985;DHT22;10651;47.552;7.606;2022-11-20T20:28:04;8.90;99.90
20985;DHT22;10651;47.552;7.606;2022-11-20T20:30:30;8.70;99.90
20985;DHT22;10651;47.552;7.606;2022-11-20T20:32:55;8.70;99.90
20985;DHT22;10651;47.552;7.606;2022-11-20T20:35:21;8.60;99.90
20985;DHT22;10651;47.552;7.606;2022-11-20T20:37:46;8.60;99.90
20985;DHT22;10651;47.552;7.606;2022-11-20T20:40:12;8.70;99.90
20985;DHT22;10651;47.552;7.606;2022-11-20T20:42:38;8.60;99.90
20985;DHT22;10651;47.552;7.606;2022-11-20T20:45:04;8.60;99.90
20985;DHT22;10651;47.552;7.606;2022-11-20T20:47:37;8.60;99.90
20985;DHT22;10651;47.552;7.606;2022-11-20T20:50:05;8.60;99.90
20985;DHT22;10651;47.552;7.606;2022-11-20T20:52:31;8.70;99.90
20985;DHT22;10651;47.552;7.606;2022-11-20T20:54:56;8.80;99.90
20985;DHT22;10651;47.552;7.606;2022-11-20T20:57:23;8.80;99.90
20985;DHT22;10651;47.552;7.606;2022-11-20T20:59:49;8.80;99.90
20985;DHT22;10651;47.552;7.606;2022-11-20T21:02:17;8.80;99.90
20985;DHT22;10651;47.552;7.606;2022-11-20T21:04:44;8.70;99.90
20985;DHT22;10651;47.552;7.606;2022-11-20T21:07:09;8.80;99.90
20985;DHT22;10651;47.552;7.606;2022-11-20T21:09:36;8.70;99.90
20985;DHT22;10651;47.552;7.606;2022-11-20T21:12:02;8.60;99.90
20985;DHT22;10651;47.552;7.606;2022-11-20T21:14:27;8.70;99.90
20985;DHT22;10651;47.552;7.606;2022-11-20T21:16:53;8.80;99.90
20985;DHT22;10651;47.552;7.606;2022-11-20T21:19:19;8.90;99.90
20985;DHT22;10651;47.552;7.606;2022-11-20T21:21:44;8.90;99.90
20985;DHT22;10651;47.552;7.606;2022-11-20T21:24:29;8.90;99.90
20985;DHT22;10651;47.552;7.606;2022-11-20T21:26:55;8.90;99.90
20985;DHT22;10651;47.552;7.606;2022-11-20T21:29:23;8.90;99.90
20985;DHT22;10651;47.552;7.606;2022-11-20T21:31:49;9.00;99.90
20985;DHT22;10651;47.552;7.606;2022-11-20T21:34:16;9.10;99.90
20985;DHT22;10651;47.552;7.606;2022-11-20T21:36:42;9.10;99.90
20985;DHT22;10651;47.552;7.606;2022-11-20T21:39:09;9.10;99.90
20985;DHT22;10651;47.552;7.606;2022-11-20T21:41:35;9.10;99.90
20985;DHT22;10651;47.552;7.606;2022-11-20T21:44:01;9.10;99.90
20985;DHT22;10651;47.552;7.606;2022-11-20T21:46:31;9.00;99.90
20985;DHT22;10651;47.552;7.606;2022-11-20T21:48:57;9.00;99.90
20985;DHT22;10651;47.552;7.606;2022-11-20T21:51:25;8.90;99.90
20985;DHT22;10651;47.552;7.606;2022-11-20T21:53:53;9.00;99.90
20985;DHT22;10651;47.552;7.606;2022-11-20T21:56:23;9.00;99.90
20985;DHT22;10651;47.552;7.606;2022-11-20T21:58:50;9.00;99.90
20985;DHT22;10651;47.552;7.606;2022-11-20T22:01:21;9.00;99.90
20985;DHT22;10651;47.552;7.606;2022-11-20T22:03:49;9.00;99.90
20985;DHT22;10651;47.552;7.606;2022-11-20T22:06:15;9.10;99.90
20985;DHT22;10651;47.552;7.606;2022-11-20T22:08:42;9.10;99.90
20985;DHT22;10651;47.552;7.606;2022-11-20T22:11:11;9.10;99.90
20985;DHT22;10651;47.552;7.606;2022-11-20T22:13:36;9.10;99.90
20985;DHT22;10651;47.552;7.606;2022-11-20T22:16:21;9.20;99.90
20985;DHT22;10651;47.552;7.606;2022-11-20T22:18:52;9.20;99.90
20985;DHT22;10651;47.552;7.606;2022-11-20T22:21:20;9.20;99.90
20985;DHT22;10651;47.552;7.606;2022-11-20T22:23:47;9.20;99.90
20985;DHT22;10651;47.552;7.606;2022-11-20T22:26:18;9.20;99.90
20985;DHT22;10651;47.552;7.606;2022-11-20T22:28:53;9.30;99.90
20985;DHT22;10651;47.552;7.606;2022-11-20T22:31:20;9.20;99.90
20985;DHT22;10651;47.552;7.606;2022-11-20T22:33:47;9.10;99.90
20985;DHT22;10651;47.552;7.606;2022-11-20T22:36:15;9.10;99.90
20985;DHT22;10651;47.552;7.606;2022-11-20T22:38:41;9.00;99.90
20985;DHT22;10651;47.552;7.606;2022-11-20T22:41:14;8.90;99.90
20985;DHT22;10651;47.552;7.606;2022-11-20T22:43:41;8.90;99.90
20985;DHT22;10651;47.552;7.606;2022-11-20T22:46:17;8.80;99.90
20985;DHT22;10651;47.552;7.606;2022-11-20T22:48:54;8.90;99.90
20985;DHT22;10651;47.552;7.606;2022-11-20T22:51:28;8.90;99.90
20985;DHT22;10651;47.552;7.606;2022-11-20T22:53:54;9.00;99.90
20985;DHT22;10651;47.552;7.606;2022-11-20T22:56:20;9.00;99.90
20985;DHT22;10651;47.552;7.606;2022-11-20T22:58:48;9.10;99.90
20985;DHT22;10651;47.552;7.606;2022-11-20T23:01:21;9.00;99.90
20985;DHT22;10651;47.552;7.606;2022-11-20T23:03:49;9.00;99.90
20985;DHT22;10651;47.552;7.606;2022-11-20T23:06:17;9.00;99.90
20985;DHT22;10651;47.552;7.606;2022-11-20T23:08:44;9.00;99.90
